Time;durP1;ratioP1;P1;durP2;ratioP2;P2;SDS_P1;SDS_P2;PMS_P1;PMS_P2;Temp;Humidity;BMP_temperature;BMP_pressure;BME280_temperature;BME280_humidity;BME280_pressure;Samples;Min_cycle;Max_cycle;Signal;HPM_P1;HPM_P2
2021/01/03 00:00:11;;;;;;;47.37;22.73;;;5.40;99.90;;;;;;5033715;28;20509;-72
2021/01/03 00:02:37;;;;;;;39.53;20.47;;;5.40;99.90;;;;;;5017427;28;20565;-73
2021/01/03 00:05:03;;;;;;;42.33;22.10;;;5.30;99.90;;;;;;5033430;28;20427;-72
2021/01/03 00:07:29;;;;;;;33.70;20.97;;;5.30;99.90;;;;;;5033241;28;20207;-72
2021/01/03 00:09:54;;;;;;;44.57;24.33;;;5.40;99.90;;;;;;5033415;28;20462;-72
2021/01/03 00:12:20;;;;;;;38.57;20.40;;;5.40;99.90;;;;;;5032757;28;20207;-73
2021/01/03 00:14:45;;;;;;;41.87;23.50;;;5.30;99.90;;;;;;5032844;28;20172;-73
2021/01/03 00:17:11;;;;;;;40.20;22.57;;;5.30;99.90;;;;;;5033028;28;20173;-72
2021/01/03 00:19:36;;;;;;;38.47;21.60;;;5.40;99.90;;;;;;5033295;28;20179;-72
2021/01/03 00:22:02;;;;;;;42.67;22.70;;;5.40;99.90;;;;;;5032976;28;20210;-72
2021/01/03 00:24:28;;;;;;;38.37;21.80;;;5.30;99.90;;;;;;5033592;28;20267;-72
2021/01/03 00:26:53;;;;;;;41.27;23.83;;;5.30;99.90;;;;;;5032172;28;20183;-72
2021/01/03 00:29:19;;;;;;;49.13;24.17;;;5.40;99.90;;;;;;5033131;28;20175;-74
2021/01/03 00:31:49;;;;;;;38.33;23.20;;;5.40;99.90;;;;;;5033909;28;20227;-73
2021/01/03 00:34:17;;;;;;;37.60;21.70;;;5.30;99.90;;;;;;5034873;28;20179;-73
2021/01/03 00:36:42;;;;;;;43.60;22.70;;;5.30;99.90;;;;;;5033819;28;20431;-73
2021/01/03 00:39:09;;;;;;;41.20;21.87;;;5.30;99.90;;;;;;5033593;28;20441;-72
2021/01/03 00:41:35;;;;;;;42.47;20.80;;;5.30;99.90;;;;;;5032936;28;20500;-72
2021/01/03 00:44:01;;;;;;;46.97;23.13;;;5.30;99.90;;;;;;5033204;28;20441;-72
2021/01/03 00:46:27;;;;;;;41.27;21.50;;;5.30;99.90;;;;;;5032871;28;20422;-73
2021/01/03 00:48:52;;;;;;;39.37;20.83;;;5.30;99.90;;;;;;5031390;28;20457;-73
2021/01/03 00:51:18;;;;;;;36.50;22.03;;;5.30;99.90;;;;;;5031522;28;20175;-72
2021/01/03 00:53:44;;;;;;;40.53;21.97;;;5.30;99.90;;;;;;5033005;28;20194;-73
2021/01/03 00:56:10;;;;;;;37.80;20.87;;;5.30;99.90;;;;;;5032997;28;20171;-73
2021/01/03 00:58:36;;;;;;;39.87;22.90;;;5.40;99.90;;;;;;5032296;28;20183;-72
2021/01/03 01:01:01;;;;;;;38.30;21.00;;;5.30;99.90;;;;;;5032186;28;20422;-73
2021/01/03 01:03:28;;;;;;;37.77;21.40;;;5.30;99.90;;;;;;5031054;28;20198;-73
2021/01/03 01:05:54;;;;;;;43.07;23.43;;;5.30;99.90;;;;;;5036344;28;20596;-73
2021/01/03 01:08:20;;;;;;;39.30;22.63;;;5.10;99.90;;;;;;5032549;28;20435;-73
2021/01/03 01:10:45;;;;;;;36.00;21.33;;;5.20;99.90;;;;;;5033862;28;20433;-73
2021/01/03 01:13:11;;;;;;;45.77;21.83;;;5.20;99.90;;;;;;5032783;28;20348;-73
2021/01/03 01:15:37;;;;;;;38.37;21.53;;;5.20;99.90;;;;;;5033544;28;20179;-73
2021/01/03 01:18:03;;;;;;;37.60;20.73;;;5.20;99.90;;;;;;5034673;28;20171;-72
2021/01/03 01:20:30;;;;;;;34.37;21.50;;;5.20;99.90;;;;;;5033612;28;20172;-73
2021/01/03 01:22:56;;;;;;;36.63;21.57;;;5.20;99.90;;;;;;5031056;28;20286;-72
2021/01/03 01:25:25;;;;;;;41.60;22.27;;;5.20;99.90;;;;;;5031742;28;20986;-72
2021/01/03 01:27:52;;;;;;;34.60;22.30;;;5.20;99.90;;;;;;5031453;28;20230;-73
2021/01/03 01:30:18;;;;;;;36.50;22.80;;;5.20;99.90;;;;;;5031546;28;20449;-73
2021/01/03 01:32:44;;;;;;;35.40;22.50;;;5.20;99.90;;;;;;5031896;28;20469;-72
2021/01/03 01:35:13;;;;;;;39.80;23.10;;;5.20;99.90;;;;;;5032054;28;20418;-70
2021/01/03 01:37:38;;;;;;;37.53;24.10;;;5.20;99.90;;;;;;5031914;28;20244;-71
2021/01/03 01:40:06;;;;;;;31.97;21.80;;;5.20;99.90;;;;;;5032273;28;20899;-71
2021/01/03 01:42:32;;;;;;;38.70;22.30;;;5.20;99.90;;;;;;5030771;28;20187;-71
2021/01/03 01:44:57;;;;;;;39.50;22.70;;;5.30;99.90;;;;;;5032058;28;20521;-71
2021/01/03 01:47:35;;;;;;;39.07;21.53;;;5.30;99.90;;;;;;5031795;28;20270;-70
2021/01/03 01:50:05;;;;;;;42.33;23.37;;;5.30;99.90;;;;;;5032179;28;20271;-70
2021/01/03 01:52:36;;;;;;;42.77;24.57;;;5.20;99.90;;;;;;5029955;28;21003;-70
2021/01/03 01:55:05;;;;;;;39.30;22.30;;;5.20;99.90;;;;;;5031738;28;20426;-70
2021/01/03 01:57:41;;;;;;;41.23;23.23;;;5.20;99.90;;;;;;5032106;28;20442;-71
2021/01/03 02:00:22;;;;;;;38.97;24.17;;;5.30;99.90;;;;;;5032095;28;20417;-71
2021/01/03 02:03:12;;;;;;;37.30;21.27;;;5.10;99.90;;;;;;5036424;28;20426;-71
2021/01/03 02:05:52;;;;;;;32.77;22.90;;;5.10;99.90;;;;;;5036531;28;20414;-69
2021/01/03 02:08:27;;;;;;;40.37;22.53;;;5.10;99.90;;;;;;5035086;28;20418;-71
2021/01/03 02:10:53;;;;;;;38.07;23.93;;;5.20;99.90;;;;;;5035927;28;20780;-70
2021/01/03 02:13:48;;;;;;;42.57;24.83;;;5.20;99.90;;;;;;5035700;28;20461;-70
2021/01/03 02:16:18;;;;;;;38.07;22.17;;;5.10;99.90;;;;;;5028440;28;20465;-70
2021/01/03 02:18:45;;;;;;;38.87;21.77;;;5.00;99.90;;;;;;5035588;28;20425;-71
2021/01/03 02:21:34;;;;;;;37.53;22.47;;;5.00;99.90;;;;;;5035668;28;20539;-71
2021/01/03 02:24:25;;;;;;;36.17;22.50;;;5.00;99.90;;;;;;5036111;28;21166;-72
2021/01/03 02:27:00;;;;;;;37.67;22.53;;;4.90;99.90;;;;;;5035505;28;20922;-70
2021/01/03 02:29:26;;;;;;;38.53;22.83;;;4.80;99.90;;;;;;5035027;28;20416;-70
2021/01/03 02:31:55;;;;;;;38.77;20.43;;;4.90;99.90;;;;;;5030018;28;20460;-71
2021/01/03 02:34:26;;;;;;;32.00;20.80;;;4.80;99.90;;;;;;5034997;28;20438;-71
2021/01/03 02:36:59;;;;;;;34.03;21.43;;;4.80;99.90;;;;;;5034796;28;20414;-71
2021/01/03 02:39:55;;;;;;;37.30;20.43;;;4.90;99.90;;;;;;5035064;28;20932;-71
2021/01/03 02:42:33;;;;;;;34.20;21.00;;;4.90;99.90;;;;;;5034596;28;20812;-70
2021/01/03 02:45:02;;;;;;;33.47;20.37;;;4.70;99.90;;;;;;5034743;28;20426;-70
2021/01/03 02:47:33;;;;;;;37.47;21.53;;;4.80;99.90;;;;;;5034464;28;20434;-70
2021/01/03 02:49:59;;;;;;;34.33;20.20;;;4.70;99.90;;;;;;5035332;28;20425;-71
2021/01/03 02:52:35;;;;;;;35.00;20.10;;;4.80;99.90;;;;;;5034749;28;20858;-70
2021/01/03 02:55:00;;;;;;;32.50;19.10;;;4.80;99.90;;;;;;5034885;28;20424;-71
2021/01/03 02:57:26;;;;;;;33.50;20.80;;;4.80;99.90;;;;;;5034849;28;20513;-71
2021/01/03 02:59:52;;;;;;;32.93;20.60;;;4.80;99.90;;;;;;5034566;28;20425;-72
2021/01/03 03:02:18;;;;;;;31.67;19.77;;;5.00;99.90;;;;;;5034354;28;20270;-72
2021/01/03 03:04:44;;;;;;;30.03;18.63;;;5.00;99.90;;;;;;5035140;28;20645;-71
2021/01/03 03:07:09;;;;;;;35.17;20.00;;;5.00;99.90;;;;;;5034921;28;20420;-72
2021/01/03 03:09:35;;;;;;;29.60;17.67;;;5.00;99.90;;;;;;5034754;28;20419;-72
2021/01/03 03:12:01;;;;;;;26.80;17.60;;;4.80;99.90;;;;;;5034037;28;20234;-71
2021/01/03 03:14:26;;;;;;;28.30;17.10;;;4.80;99.90;;;;;;5034572;28;20651;-71
2021/01/03 03:17:00;;;;;;;25.37;16.50;;;4.70;99.90;;;;;;5034005;28;20172;-71
2021/01/03 03:19:25;;;;;;;23.20;14.73;;;4.60;99.90;;;;;;5033836;28;20171;-71
2021/01/03 03:21:53;;;;;;;27.70;15.83;;;4.60;99.90;;;;;;5033942;28;20931;-71
2021/01/03 03:24:19;;;;;;;20.00;13.90;;;4.50;99.90;;;;;;5034447;28;20171;-71
2021/01/03 03:26:52;;;;;;;20.40;13.97;;;4.50;99.90;;;;;;5032833;28;20434;-70
2021/01/03 03:29:18;;;;;;;21.33;14.43;;;4.40;99.90;;;;;;5034800;28;20467;-71
2021/01/03 03:31:44;;;;;;;22.80;15.27;;;4.50;99.90;;;;;;5033614;28;20427;-71
2021/01/03 03:34:10;;;;;;;22.83;14.00;;;4.40;99.90;;;;;;5033933;28;20421;-70
2021/01/03 03:36:35;;;;;;;23.80;15.47;;;4.50;99.90;;;;;;5033190;28;20651;-71
2021/01/03 03:39:01;;;;;;;20.90;14.00;;;4.50;99.90;;;;;;5034296;28;20313;-72
2021/01/03 03:41:26;;;;;;;26.00;15.10;;;4.50;99.90;;;;;;5035187;28;20170;-71
2021/01/03 03:43:52;;;;;;;21.00;13.57;;;4.50;99.90;;;;;;5033533;28;20201;-71
2021/01/03 03:46:18;;;;;;;21.63;14.00;;;4.50;99.90;;;;;;5033094;28;20218;-71
2021/01/03 03:48:44;;;;;;;24.30;15.87;;;4.50;99.90;;;;;;5033734;28;20428;-71
2021/01/03 03:51:15;;;;;;;27.27;16.27;;;4.60;99.90;;;;;;5033066;28;20504;-71
2021/01/03 03:53:41;;;;;;;24.17;14.37;;;4.60;99.90;;;;;;5028649;28;20990;-71
2021/01/03 03:56:09;;;;;;;26.67;16.27;;;4.80;99.90;;;;;;5034187;28;20418;-70
2021/01/03 03:58:34;;;;;;;22.90;14.80;;;4.80;99.90;;;;;;5033235;28;20168;-71
2021/01/03 04:01:00;;;;;;;22.23;15.43;;;4.70;99.90;;;;;;5033976;28;20417;-71
2021/01/03 04:03:25;;;;;;;24.27;14.83;;;4.70;99.90;;;;;;5035062;28;20194;-72
2021/01/03 04:05:51;;;;;;;21.03;14.80;;;4.50;99.90;;;;;;5034888;28;20815;-71
2021/01/03 04:08:17;;;;;;;24.50;15.00;;;4.60;99.90;;;;;;5035096;28;20172;-72
2021/01/03 04:10:42;;;;;;;27.83;16.43;;;4.80;99.90;;;;;;5034462;28;20302;-71
2021/01/03 04:13:09;;;;;;;32.13;18.70;;;4.80;99.90;;;;;;5032748;28;20210;-71
2021/01/03 04:15:35;;;;;;;29.83;19.17;;;4.90;99.90;;;;;;5032822;28;20171;-71
2021/01/03 04:18:01;;;;;;;29.07;18.60;;;5.00;99.90;;;;;;5033932;28;20418;-71
2021/01/03 04:20:27;;;;;;;30.50;19.87;;;5.10;99.90;;;;;;5034194;28;20434;-71
2021/01/03 04:22:53;;;;;;;41.60;22.83;;;5.10;99.90;;;;;;5033736;28;20262;-72
2021/01/03 04:25:19;;;;;;;32.90;22.20;;;5.10;99.90;;;;;;5034342;28;20457;-70
2021/01/03 04:27:45;;;;;;;40.07;22.50;;;5.00;99.90;;;;;;5033570;28;20180;-71
2021/01/03 04:30:13;;;;;;;35.87;22.67;;;5.00;99.90;;;;;;5033687;28;20435;-71
2021/01/03 04:32:39;;;;;;;37.10;23.23;;;5.10;99.90;;;;;;5033931;28;20208;-72
2021/01/03 04:35:07;;;;;;;34.37;22.60;;;5.00;99.90;;;;;;5034828;28;20509;-71
2021/01/03 04:37:33;;;;;;;35.40;22.30;;;5.00;99.90;;;;;;5034358;28;20184;-72
2021/01/03 04:39:58;;;;;;;38.83;21.47;;;5.00;99.90;;;;;;5034539;28;20981;-72
2021/01/03 04:42:30;;;;;;;40.20;22.10;;;5.10;99.90;;;;;;5033283;28;20203;-71
2021/01/03 04:45:00;;;;;;;37.37;22.87;;;5.00;99.90;;;;;;5033223;28;20576;-72
2021/01/03 04:47:38;;;;;;;35.17;22.17;;;4.90;99.90;;;;;;5032975;28;20438;-71
2021/01/03 04:50:07;;;;;;;33.40;20.83;;;5.00;99.90;;;;;;5033065;28;20429;-71
2021/01/03 04:52:39;;;;;;;35.23;21.63;;;5.00;99.90;;;;;;5032054;28;20466;-71
2021/01/03 04:55:24;;;;;;;35.77;20.73;;;5.00;99.90;;;;;;5032099;28;20454;-72
2021/01/03 04:58:11;;;;;;;34.27;19.67;;;4.90;99.90;;;;;;5034215;28;20492;-72
2021/01/03 05:00:43;;;;;;;35.60;21.60;;;4.90;99.90;;;;;;5026300;28;20824;-72
2021/01/03 05:03:31;;;;;;;31.97;21.80;;;4.80;99.90;;;;;;5033176;28;20457;-71
2021/01/03 05:06:06;;;;;;;36.50;20.53;;;4.80;99.90;;;;;;5031065;28;20426;-71
2021/01/03 05:08:44;;;;;;;32.90;21.07;;;4.80;99.90;;;;;;5031999;28;20441;-71
2021/01/03 05:11:18;;;;;;;34.97;19.17;;;4.90;99.90;;;;;;5031735;28;20785;-71
2021/01/03 05:14:01;;;;;;;34.93;22.23;;;4.80;99.90;;;;;;5032772;28;20465;-71
2021/01/03 05:16:27;;;;;;;37.63;20.80;;;4.80;99.90;;;;;;5031331;28;20414;-71
2021/01/03 05:18:53;;;;;;;34.03;19.83;;;4.90;99.90;;;;;;5032242;28;20421;-71
2021/01/03 05:21:18;;;;;;;36.07;22.60;;;4.80;99.90;;;;;;5031430;28;20217;-71
2021/01/03 05:24:00;;;;;;;47.73;22.33;;;4.80;99.90;;;;;;5031864;28;20199;-71
2021/01/03 05:26:36;;;;;;;32.70;20.40;;;4.90;99.90;;;;;;5031701;28;20171;-71
2021/01/03 05:29:03;;;;;;;49.33;22.83;;;4.90;99.90;;;;;;5019501;28;20848;-71
2021/01/03 05:31:30;;;;;;;32.73;20.50;;;4.80;99.90;;;;;;5031519;28;20422;-72
2021/01/03 05:34:08;;;;;;;32.10;20.57;;;4.90;99.90;;;;;;5031539;28;20457;-71
2021/01/03 05:36:33;;;;;;;36.17;20.70;;;4.80;99.90;;;;;;5031539;28;20475;-72
2021/01/03 05:39:03;;;;;;;31.77;19.73;;;4.90;99.90;;;;;;5031403;28;20798;-71
2021/01/03 05:41:54;;;;;;;34.67;21.57;;;5.00;99.90;;;;;;5031505;28;20258;-70
2021/01/03 05:44:29;;;;;;;35.27;21.70;;;5.00;99.90;;;;;;5032058;28;20501;-72
2021/01/03 05:47:04;;;;;;;36.17;21.27;;;5.00;99.90;;;;;;5031002;28;20437;-72
2021/01/03 05:49:30;;;;;;;35.70;21.10;;;5.00;99.90;;;;;;5032410;28;20430;-71
2021/01/03 05:52:23;;;;;;;33.10;19.70;;;5.10;99.90;;;;;;5031267;28;20532;-71
2021/01/03 05:54:50;;;;;;;33.13;20.37;;;5.10;99.90;;;;;;5032413;28;20908;-71
2021/01/03 05:57:29;;;;;;;30.90;19.97;;;5.10;99.90;;;;;;5032253;28;20423;-71
2021/01/03 05:59:55;;;;;;;29.57;18.13;;;5.00;99.90;;;;;;5031826;28;20512;-71
2021/01/03 06:02:25;;;;;;;32.50;18.60;;;5.00;99.90;;;;;;5032252;28;20869;-72
2021/01/03 06:05:04;;;;;;;29.40;19.00;;;5.00;99.90;;;;;;5032604;28;20452;-71
2021/01/03 06:07:31;;;;;;;29.10;18.07;;;4.90;99.90;;;;;;5023603;28;20418;-71
2021/01/03 06:09:56;;;;;;;23.87;16.23;;;4.90;99.90;;;;;;5031581;28;20895;-71
2021/01/03 06:12:25;;;;;;;26.50;18.40;;;4.90;99.90;;;;;;5030308;28;20512;-71
2021/01/03 06:14:54;;;;;;;29.07;17.50;;;4.90;99.90;;;;;;5031429;28;20159;-71
2021/01/03 06:17:33;;;;;;;24.63;16.80;;;5.00;99.90;;;;;;5030824;28;20414;-71
2021/01/03 06:20:08;;;;;;;29.23;17.67;;;5.00;99.90;;;;;;5031223;28;20464;-71
2021/01/03 06:22:43;;;;;;;26.00;17.67;;;5.00;99.90;;;;;;5031149;28;20447;-72
2021/01/03 06:25:50;;;;;;;28.67;18.07;;;5.00;99.90;;;;;;5033449;28;20527;-72
2021/01/03 06:28:38;;;;;;;24.60;17.20;;;5.10;99.90;;;;;;5026838;28;20955;-72
2021/01/03 06:31:44;;;;;;;31.50;20.07;;;5.10;99.90;;;;;;5031956;28;20922;-72
2021/01/03 06:34:38;;;;;;;33.90;18.87;;;5.10;99.90;;;;;;5030798;28;20796;-71
2021/01/03 06:37:19;;;;;;;29.30;19.30;;;5.10;99.90;;;;;;5029992;28;20422;-71
2021/01/03 06:39:59;;;;;;;28.23;16.90;;;5.00;99.90;;;;;;5029751;28;20500;-71
2021/01/03 06:42:24;;;;;;;25.77;17.23;;;5.00;99.90;;;;;;5029787;28;21112;-71
2021/01/03 06:45:14;;;;;;;24.70;16.37;;;5.00;99.90;;;;;;5031253;28;20433;-71
2021/01/03 06:48:02;;;;;;;28.60;17.70;;;5.10;99.90;;;;;;5033144;28;20183;-72
2021/01/03 06:50:27;;;;;;;29.50;16.20;;;5.10;99.90;;;;;;5034669;28;20417;-71
2021/01/03 06:53:05;;;;;;;29.30;16.97;;;5.10;99.90;;;;;;5034901;28;20472;-70
2021/01/03 06:55:39;;;;;;;27.10;17.50;;;5.10;99.90;;;;;;5035145;28;20172;-72
2021/01/03 06:58:39;;;;;;;31.60;17.37;;;5.10;99.90;;;;;;5035755;28;21149;-72
2021/01/03 07:01:29;;;;;;;24.10;18.17;;;5.00;99.90;;;;;;5035106;28;20919;-72
2021/01/03 07:03:57;;;;;;;22.67;14.80;;;4.90;99.90;;;;;;5022332;28;20796;-72
2021/01/03 07:06:34;;;;;;;24.27;16.30;;;4.80;99.90;;;;;;5035462;28;21104;-73
2021/01/03 07:09:09;;;;;;;30.03;17.03;;;4.90;99.90;;;;;;5036016;28;20414;-72
2021/01/03 07:11:57;;;;;;;26.97;15.93;;;4.90;99.90;;;;;;5034988;28;20422;-72
2021/01/03 07:14:22;;;;;;;25.00;16.20;;;4.90;99.90;;;;;;5035103;28;20457;-72
2021/01/03 07:17:01;;;;;;;27.80;16.50;;;4.90;99.90;;;;;;5034629;28;20453;-72
2021/01/03 07:19:29;;;;;;;35.23;21.80;;;5.00;99.90;;;;;;5034785;28;20535;-72
2021/01/03 07:21:58;;;;;;;26.30;17.53;;;4.90;99.90;;;;;;5033133;28;20419;-71
2021/01/03 07:24:42;;;;;;;29.20;16.77;;;5.00;99.90;;;;;;5035085;28;20762;-74
2021/01/03 07:27:19;;;;;;;22.47;15.77;;;5.00;99.90;;;;;;5034586;28;20414;-72
2021/01/03 07:29:57;;;;;;;28.37;18.33;;;4.90;99.90;;;;;;5034774;28;20454;-72
2021/01/03 07:32:37;;;;;;;23.27;15.90;;;4.90;99.90;;;;;;5034074;28;20469;-72
2021/01/03 07:35:27;;;;;;;24.00;15.10;;;5.00;99.90;;;;;;5034552;28;20749;-71
2021/01/03 07:38:14;;;;;;;23.07;15.60;;;4.90;99.90;;;;;;5034550;28;20418;-72
2021/01/03 07:41:06;;;;;;;18.70;14.63;;;4.80;99.90;;;;;;5034852;28;20824;-71
2021/01/03 07:44:01;;;;;;;22.37;14.87;;;4.70;99.90;;;;;;5035267;28;20822;-71
2021/01/03 07:46:52;;;;;;;28.43;14.00;;;4.70;99.90;;;;;;5033662;28;22281;-71
2021/01/03 07:49:41;;;;;;;19.10;13.97;;;4.70;99.90;;;;;;5034693;28;21082;-72
2021/01/03 07:52:19;;;;;;;23.57;15.30;;;4.60;99.90;;;;;;5033660;28;20461;-71
2021/01/03 07:54:49;;;;;;;17.53;14.43;;;4.60;99.90;;;;;;5034875;28;20418;-71
2021/01/03 07:57:16;;;;;;;23.20;15.60;;;4.70;99.90;;;;;;5034429;28;20484;-72
2021/01/03 07:59:41;;;;;;;24.00;14.90;;;4.60;99.90;;;;;;5034053;28;20440;-72
2021/01/03 08:02:08;;;;;;;28.37;16.13;;;4.70;99.90;;;;;;5033448;28;20445;-71
2021/01/03 08:04:33;;;;;;;26.50;15.53;;;4.60;99.90;;;;;;5033401;28;20506;-71
2021/01/03 08:07:18;;;;;;;21.90;14.37;;;4.70;99.90;;;;;;5033721;28;20432;-70
2021/01/03 08:09:44;;;;;;;23.00;15.30;;;4.60;99.90;;;;;;5032911;28;20179;-71
2021/01/03 08:12:30;;;;;;;23.40;14.73;;;4.70;99.90;;;;;;5031946;28;20508;-72
2021/01/03 08:15:04;;;;;;;75.50;46.83;;;4.70;99.90;;;;;;5033593;28;20235;-70
2021/01/03 08:17:36;;;;;;;27.40;16.20;;;4.70;99.90;;;;;;5048244;28;20430;-71
2021/01/03 08:20:06;;;;;;;22.30;15.13;;;4.70;99.90;;;;;;5033539;28;20961;-71
2021/01/03 08:22:31;;;;;;;21.53;14.70;;;4.60;99.90;;;;;;5032662;28;20517;-71
2021/01/03 08:25:00;;;;;;;21.53;14.43;;;4.50;99.90;;;;;;5033639;28;20518;-70
2021/01/03 08:27:41;;;;;;;22.40;15.10;;;4.50;99.90;;;;;;5032829;28;20185;-71
2021/01/03 08:30:13;;;;;;;22.37;15.57;;;4.40;99.90;;;;;;5032208;28;20422;-71
2021/01/03 08:32:40;;;;;;;20.30;14.70;;;4.40;99.90;;;;;;5032558;28;20461;-71
2021/01/03 08:35:26;;;;;;;25.63;14.67;;;4.40;99.90;;;;;;5033276;28;20960;-71
2021/01/03 08:37:51;;;;;;;23.87;15.73;;;4.40;99.90;;;;;;5033054;28;20453;-71
2021/01/03 08:40:25;;;;;;;20.73;14.30;;;4.40;99.90;;;;;;5032539;28;20457;-72
2021/01/03 08:43:02;;;;;;;24.20;14.40;;;4.50;99.90;;;;;;5032474;28;20203;-71
2021/01/03 08:45:39;;;;;;;48.40;31.30;;;4.50;99.90;;;;;;5032576;28;20480;-71
2021/01/03 08:48:11;;;;;;;89.00;56.47;;;4.50;99.90;;;;;;5033117;28;20453;-71
2021/01/03 08:50:39;;;;;;;20.03;12.93;;;4.60;99.90;;;;;;5033141;28;20402;-71
2021/01/03 08:53:24;;;;;;;22.83;14.10;;;4.50;99.90;;;;;;5033733;28;21229;-71
2021/01/03 08:55:59;;;;;;;19.80;12.20;;;4.50;99.90;;;;;;5030320;28;20422;-71
2021/01/03 08:58:34;;;;;;;16.20;11.27;;;4.50;99.90;;;;;;5027170;28;20498;-71
2021/01/03 09:01:01;;;;;;;21.00;13.57;;;4.50;99.90;;;;;;5032249;28;20436;-71
2021/01/03 09:03:27;;;;;;;18.70;12.80;;;4.40;99.90;;;;;;5031517;28;20456;-70
2021/01/03 09:05:54;;;;;;;20.67;12.60;;;4.40;99.90;;;;;;5032321;28;20426;-71
2021/01/03 09:08:28;;;;;;;15.73;11.80;;;4.50;99.90;;;;;;5031543;28;20832;-70
2021/01/03 09:11:24;;;;;;;16.63;12.50;;;4.40;99.90;;;;;;5031698;28;20452;-71
2021/01/03 09:13:57;;;;;;;14.70;11.10;;;4.50;99.90;;;;;;5021382;28;20882;-71
2021/01/03 09:16:49;;;;;;;17.40;12.53;;;4.50;99.90;;;;;;5026819;28;20507;-70
2021/01/03 09:19:21;;;;;;;25.77;19.93;;;4.50;99.90;;;;;;5033757;28;20427;-71
2021/01/03 09:21:59;;;;;;;19.50;11.70;;;4.40;99.90;;;;;;5031615;28;20571;-71
2021/01/03 09:24:32;;;;;;;16.70;11.13;;;4.40;99.90;;;;;;5033531;28;20433;-71
2021/01/03 09:27:01;;;;;;;15.90;11.43;;;4.40;99.90;;;;;;5033300;28;20430;-71
2021/01/03 09:29:30;;;;;;;13.97;9.93;;;4.40;99.90;;;;;;5032427;28;20435;-71
2021/01/03 09:32:02;;;;;;;14.57;11.17;;;4.40;99.90;;;;;;5028774;28;20518;-71
2021/01/03 09:34:43;;;;;;;14.13;9.80;;;4.50;99.90;;;;;;5030143;28;20480;-70
2021/01/03 09:37:33;;;;;;;13.67;9.80;;;4.50;99.90;;;;;;5032247;28;20470;-71
2021/01/03 09:40:34;;;;;;;12.20;9.67;;;4.50;99.90;;;;;;5030662;28;20488;-70
2021/01/03 09:43:15;;;;;;;14.83;10.37;;;4.50;99.90;;;;;;5033540;28;20445;-71
2021/01/03 09:46:18;;;;;;;15.63;10.30;;;4.50;99.90;;;;;;5032504;28;20480;-71
2021/01/03 09:48:46;;;;;;;12.07;8.90;;;4.50;99.90;;;;;;5032849;28;20786;-72
2021/01/03 09:51:32;;;;;;;14.83;9.50;;;4.50;99.90;;;;;;5032984;28;20535;-71
2021/01/03 09:54:11;;;;;;;16.63;9.37;;;4.50;99.90;;;;;;5023492;28;20471;-71
2021/01/03 09:56:39;;;;;;;16.47;9.60;;;4.40;99.90;;;;;;5032272;28;20555;-72
2021/01/03 09:59:12;;;;;;;14.23;10.03;;;4.40;99.90;;;;;;5033757;28;20434;-72
2021/01/03 10:01:38;;;;;;;11.43;8.93;;;4.40;99.90;;;;;;5014423;28;20419;-72
2021/01/03 10:04:19;;;;;;;11.60;8.50;;;4.50;99.90;;;;;;5031570;28;20453;-72
2021/01/03 10:06:48;;;;;;;13.87;9.83;;;4.50;99.90;;;;;;5025719;28;20433;-72
2021/01/03 10:09:24;;;;;;;17.20;10.80;;;4.40;99.90;;;;;;5031539;28;20430;-71
2021/01/03 10:11:52;;;;;;;18.20;11.00;;;4.50;99.90;;;;;;5029786;28;20425;-71
2021/01/03 10:14:32;;;;;;;12.90;10.20;;;4.40;99.90;;;;;;5030692;28;20950;-71
2021/01/03 10:17:19;;;;;;;14.30;9.20;;;4.50;99.90;;;;;;5029903;28;20422;-71
2021/01/03 10:19:46;;;;;;;14.73;10.50;;;4.60;99.90;;;;;;5023887;28;20516;-72
2021/01/03 10:22:34;;;;;;;14.63;9.93;;;4.60;99.90;;;;;;5034507;28;20862;-71
2021/01/03 10:25:08;;;;;;;12.60;10.13;;;4.60;99.90;;;;;;5030532;28;20426;-72
2021/01/03 10:27:34;;;;;;;11.33;9.20;;;4.60;99.90;;;;;;5034740;28;20505;-72
2021/01/03 10:30:00;;;;;;;14.60;9.67;;;4.50;99.90;;;;;;5034826;28;20865;-72
2021/01/03 10:32:25;;;;;;;45.03;29.93;;;4.50;99.90;;;;;;5034961;28;20229;-72
2021/01/03 10:34:51;;;;;;;12.10;8.67;;;4.50;99.90;;;;;;5035148;28;20180;-71
2021/01/03 10:37:18;;;;;;;16.20;9.97;;;4.50;99.90;;;;;;5035452;28;20703;-73
2021/01/03 10:39:45;;;;;;;13.97;10.63;;;4.50;99.90;;;;;;5035611;28;20435;-72
2021/01/03 10:42:11;;;;;;;12.97;10.50;;;4.60;99.90;;;;;;5034568;28;20441;-72
2021/01/03 10:44:37;;;;;;;12.70;10.00;;;4.50;99.90;;;;;;5035141;28;20421;-73
2021/01/03 10:47:03;;;;;;;12.33;9.70;;;4.80;99.90;;;;;;5036028;28;20191;-73
2021/01/03 10:49:29;;;;;;;16.83;11.47;;;4.80;99.90;;;;;;5035475;28;20425;-73
2021/01/03 10:51:55;;;;;;;14.83;9.83;;;4.80;99.90;;;;;;5035430;28;20764;-72
2021/01/03 10:54:27;;;;;;;12.30;9.03;;;4.80;99.90;;;;;;5034295;28;20184;-72
2021/01/03 10:56:55;;;;;;;17.43;9.30;;;4.70;99.90;;;;;;5034532;28;20519;-72
2021/01/03 10:59:22;;;;;;;13.67;9.27;;;4.80;99.90;;;;;;5034866;28;20422;-72
2021/01/03 11:01:48;;;;;;;13.93;10.93;;;4.70;99.90;;;;;;5035297;28;20414;-73
2021/01/03 11:04:17;;;;;;;16.13;10.50;;;4.70;99.90;;;;;;5034008;28;21002;-71
2021/01/03 11:06:44;;;;;;;12.77;9.47;;;4.80;99.90;;;;;;5034303;28;20175;-73
2021/01/03 11:09:32;;;;;;;16.17;10.73;;;4.90;99.90;;;;;;5032102;28;20939;-73
2021/01/03 11:12:03;;;;;;;16.80;10.47;;;5.00;99.90;;;;;;5033793;28;20429;-71
2021/01/03 11:14:29;;;;;;;12.83;9.27;;;5.00;99.90;;;;;;5033739;28;20540;-72
2021/01/03 11:16:55;;;;;;;13.40;10.40;;;5.10;99.90;;;;;;5033919;28;20428;-71
2021/01/03 11:19:21;;;;;;;13.97;10.03;;;5.20;99.90;;;;;;5034003;28;20496;-72
2021/01/03 11:21:52;;;;;;;36.53;22.83;;;5.20;99.90;;;;;;5033715;28;20927;-72
2021/01/03 11:24:17;;;;;;;13.27;10.37;;;5.20;99.90;;;;;;5033679;28;20476;-72
2021/01/03 11:26:43;;;;;;;14.90;12.37;;;5.30;99.90;;;;;;5034076;28;20823;-71
2021/01/03 11:29:15;;;;;;;12.07;9.87;;;5.40;99.90;;;;;;5033479;28;20203;-72
2021/01/03 11:31:46;;;;;;;10.83;9.00;;;5.40;99.90;;;;;;5042446;28;20168;-72
2021/01/03 11:34:16;;;;;;;11.77;9.93;;;5.30;99.90;;;;;;5034100;28;20430;-73
2021/01/03 11:36:51;;;;;;;10.47;8.53;;;5.20;99.90;;;;;;5034176;28;20419;-72
2021/01/03 11:39:17;;;;;;;12.90;9.10;;;5.20;99.90;;;;;;5034410;28;20418;-72
2021/01/03 11:41:46;;;;;;;12.17;8.60;;;5.10;99.90;;;;;;5033672;28;20899;-72
2021/01/03 11:44:12;;;;;;;10.57;9.13;;;5.00;99.90;;;;;;5035593;28;20472;-72
2021/01/03 11:46:37;;;;;;;11.00;8.97;;;5.00;99.90;;;;;;5034253;28;20466;-73
2021/01/03 11:49:04;;;;;;;10.53;8.93;;;4.90;99.90;;;;;;5034830;28;20434;-72
2021/01/03 11:51:30;;;;;;;11.93;9.47;;;4.80;99.90;;;;;;5034530;28;20511;-73
2021/01/03 11:53:55;;;;;;;9.83;8.77;;;4.90;99.90;;;;;;5034599;28;20520;-72
2021/01/03 11:56:22;;;;;;;10.80;8.43;;;5.00;99.90;;;;;;5034573;28;20414;-72
2021/01/03 11:58:48;;;;;;;11.10;8.27;;;5.10;99.90;;;;;;5033660;28;20180;-72
2021/01/03 12:01:18;;;;;;;8.77;7.57;;;5.20;99.90;;;;;;5033623;28;20506;-73
2021/01/03 12:03:45;;;;;;;9.07;7.17;;;5.20;99.90;;;;;;5034300;28;20846;-72
2021/01/03 12:06:11;;;;;;;11.90;8.60;;;5.20;99.90;;;;;;5034734;28;20419;-73
2021/01/03 12:08:37;;;;;;;10.80;7.90;;;5.30;99.90;;;;;;5034344;28;20509;-73
2021/01/03 12:11:02;;;;;;;9.73;7.43;;;5.20;99.90;;;;;;5034053;28;20556;-72
2021/01/03 12:13:28;;;;;;;9.90;8.20;;;5.10;99.90;;;;;;5034263;28;20485;-72
2021/01/03 12:15:53;;;;;;;9.90;7.80;;;5.00;99.90;;;;;;5034241;28;20642;-72
2021/01/03 12:18:19;;;;;;;10.17;8.30;;;5.00;99.90;;;;;;5034552;28;20182;-73
2021/01/03 12:20:45;;;;;;;9.37;6.93;;;5.00;99.90;;;;;;5033582;28;20171;-73
2021/01/03 12:23:10;;;;;;;9.07;7.33;;;5.00;99.90;;;;;;5033928;28;20195;-73
2021/01/03 12:25:36;;;;;;;8.87;6.57;;;5.00;99.90;;;;;;5033442;28;20175;-72
2021/01/03 12:28:01;;;;;;;7.47;6.17;;;5.00;99.90;;;;;;5032953;28;20682;-71
2021/01/03 12:30:27;;;;;;;10.43;7.27;;;4.90;99.90;;;;;;5032627;28;20798;-71
2021/01/03 12:32:53;;;;;;;14.63;7.40;;;4.90;99.90;;;;;;5032535;28;20261;-72
2021/01/03 12:35:18;;;;;;;9.27;7.53;;;4.90;99.90;;;;;;5033805;28;20424;-73
2021/01/03 12:37:44;;;;;;;12.70;9.70;;;4.90;99.90;;;;;;5032787;28;20522;-72
2021/01/03 12:40:12;;;;;;;10.00;6.80;;;4.90;99.90;;;;;;5034214;28;20177;-72
2021/01/03 12:42:38;;;;;;;8.77;7.17;;;5.00;99.90;;;;;;5032902;28;20285;-72
2021/01/03 12:45:11;;;;;;;11.53;7.03;;;5.00;99.90;;;;;;5032302;28;20418;-72
2021/01/03 12:47:37;;;;;;;9.93;7.40;;;5.00;99.90;;;;;;5032688;28;20445;-73
2021/01/03 12:50:04;;;;;;;9.63;7.20;;;5.10;99.90;;;;;;5033019;28;20418;-73
2021/01/03 12:52:30;;;;;;;9.63;7.33;;;5.10;99.90;;;;;;5031984;28;20196;-72
2021/01/03 12:54:55;;;;;;;10.53;7.40;;;5.10;99.90;;;;;;5032909;28;20484;-73
2021/01/03 12:57:21;;;;;;;11.07;7.90;;;5.10;99.90;;;;;;5032549;28;20653;-73
2021/01/03 12:59:47;;;;;;;6.73;5.83;;;5.20;99.90;;;;;;5033290;28;20179;-72
2021/01/03 13:02:12;;;;;;;8.20;7.40;;;5.10;99.90;;;;;;5031946;28;20195;-73